createdAt,value
2023-03-14T00:00:34.447Z,8.16
2023-03-14T00:03:42.907Z,8.12
2023-03-14T00:06:50.757Z,8.15
2023-03-14T00:10:06.844Z,8.10
2023-03-14T00:13:13.054Z,8.04
2023-03-14T00:16:29.671Z,8.00
2023-03-14T00:19:35.539Z,8.03
2023-03-14T00:22:43.081Z,8.03
2023-03-14T00:25:52.301Z,7.97
2023-03-14T00:28:59.480Z,7.99
2023-03-14T00:32:05.395Z,7.99
2023-03-14T00:35:13.281Z,7.99
2023-03-14T00:38:19.276Z,7.96
2023-03-14T00:41:28.619Z,8.00
2023-03-14T00:44:34.519Z,8.01
2023-03-14T00:47:41.514Z,8.04
2023-03-14T00:50:48.347Z,8.05
2023-03-14T00:54:10.007Z,8.10
2023-03-14T00:57:19.436Z,8.12
2023-03-14T01:00:31.475Z,8.22
2023-03-14T01:03:37.457Z,8.26
2023-03-14T01:06:44.163Z,8.28
2023-03-14T01:09:50.404Z,8.29
2023-03-14T01:13:00.359Z,8.25
2023-03-14T01:16:09.125Z,8.19
2023-03-14T01:19:17.356Z,8.12
2023-03-14T01:22:24.135Z,8.11
2023-03-14T01:25:31.330Z,8.15
2023-03-14T01:28:40.034Z,8.13
2023-03-14T01:32:06.902Z,8.02
2023-03-14T01:35:20.271Z,7.85
2023-03-14T01:38:27.332Z,7.78
2023-03-14T01:41:33.903Z,7.74
2023-03-14T01:44:59.245Z,7.72
2023-03-14T01:48:05.459Z,7.86
2023-03-14T01:51:19.568Z,8.00
2023-03-14T01:54:35.855Z,8.08
2023-03-14T01:57:50.151Z,8.10
2023-03-14T02:01:07.984Z,8.08
2023-03-14T02:04:24.402Z,8.12
2023-03-14T02:07:42.462Z,8.12
2023-03-14T02:11:02.921Z,7.95
2023-03-14T02:14:45.800Z,7.92
2023-03-14T02:18:07.959Z,7.99
2023-03-14T02:21:56.288Z,8.11
2023-03-14T02:25:18.326Z,8.22
2023-03-14T02:28:28.041Z,8.34
2023-03-14T02:31:40.654Z,8.44
2023-03-14T02:34:56.016Z,8.52
2023-03-14T02:38:14.604Z,8.52
2023-03-14T02:41:24.164Z,8.50
2023-03-14T02:44:56.073Z,8.28
2023-03-14T02:48:16.345Z,8.15
2023-03-14T02:51:24.365Z,7.93
2023-03-14T02:54:31.888Z,7.82
2023-03-14T02:57:41.641Z,7.74
2023-03-14T03:00:54.248Z,7.82
2023-03-14T03:04:02.325Z,7.98
2023-03-14T03:07:12.713Z,7.94
2023-03-14T03:10:19.544Z,8.01
2023-03-14T03:13:26.913Z,8.08
2023-03-14T03:16:37.514Z,8.11
2023-03-14T03:19:44.593Z,8.12
2023-03-14T03:22:51.225Z,8.06
2023-03-14T03:25:58.211Z,8.05
2023-03-14T03:29:04.460Z,7.84
2023-03-14T03:32:13.973Z,7.92
2023-03-14T03:35:20.527Z,7.89
2023-03-14T03:38:27.383Z,8.04
2023-03-14T03:41:35.603Z,8.19
2023-03-14T03:44:42.680Z,8.24
2023-03-14T03:47:52.658Z,8.35
2023-03-14T03:51:03.310Z,8.43
2023-03-14T03:54:10.059Z,8.54
2023-03-14T03:57:24.926Z,8.54
2023-03-14T04:00:49.092Z,8.58
2023-03-14T04:03:59.220Z,8.62
2023-03-14T04:07:07.069Z,8.61
2023-03-14T04:10:14.945Z,8.67
2023-03-14T04:13:27.628Z,8.66
2023-03-14T04:16:36.597Z,8.73
2023-03-14T04:19:55.129Z,8.63
2023-03-14T04:23:08.036Z,8.59
2023-03-14T04:26:16.177Z,8.57
2023-03-14T04:29:23.405Z,8.51
2023-03-14T04:32:29.539Z,8.43
2023-03-14T04:35:40.926Z,8.39
2023-03-14T04:38:50.149Z,8.27
2023-03-14T04:42:00.604Z,8.16
2023-03-14T04:45:07.606Z,8.15
2023-03-14T04:48:16.461Z,8.01
2023-03-14T04:51:31.211Z,7.94
2023-03-14T04:54:47.752Z,7.88
2023-03-14T04:57:54.486Z,7.89
2023-03-14T05:01:07.529Z,7.81
2023-03-14T05:04:13.482Z,7.80
2023-03-14T05:07:40.166Z,7.89
2023-03-14T05:11:00.772Z,7.74
2023-03-14T05:14:28.981Z,7.61
2023-03-14T05:17:37.817Z,7.70
2023-03-14T05:20:55.645Z,7.74
2023-03-14T05:24:23.031Z,7.80
2023-03-14T05:27:46.395Z,7.69
2023-03-14T05:31:09.924Z,7.63
2023-03-14T05:34:35.700Z,7.66
2023-03-14T05:38:06.342Z,7.62
2023-03-14T05:41:51.596Z,7.55
2023-03-14T05:45:22.438Z,7.55
2023-03-14T05:48:35.025Z,7.59
2023-03-14T05:51:48.188Z,7.59
2023-03-14T05:55:12.137Z,7.51
2023-03-14T05:58:42.908Z,7.62
2023-03-14T06:02:25.122Z,7.73
2023-03-14T06:05:40.946Z,7.76
2023-03-14T06:08:48.054Z,7.83
2023-03-14T06:11:54.463Z,7.76
2023-03-14T06:15:06.201Z,7.74
2023-03-14T06:18:15.325Z,7.75
2023-03-14T06:21:23.516Z,7.80
2023-03-14T06:24:29.637Z,7.74
2023-03-14T06:27:39.679Z,7.73
2023-03-14T06:30:48.420Z,7.72
2023-03-14T06:33:59.364Z,7.76
2023-03-14T06:37:08.776Z,7.73
2023-03-14T06:40:19.073Z,7.74
2023-03-14T06:43:45.182Z,7.80
2023-03-14T06:46:55.674Z,7.73
2023-03-14T06:50:01.765Z,7.66
2023-03-14T06:53:10.545Z,7.79
2023-03-14T06:56:20.297Z,7.80
2023-03-14T06:59:27.911Z,7.86
2023-03-14T07:02:42.999Z,7.97
2023-03-14T07:06:02.051Z,7.86
2023-03-14T07:09:08.346Z,7.87
2023-03-14T07:12:21.543Z,7.98
2023-03-14T07:15:27.410Z,7.95
2023-03-14T07:18:41.932Z,8.03
2023-03-14T07:21:48.806Z,8.25
2023-03-14T07:25:00.990Z,8.50
2023-03-14T07:28:07.579Z,8.50
2023-03-14T07:31:16.650Z,8.74
2023-03-14T07:34:25.500Z,8.98
2023-03-14T07:37:32.399Z,9.00
2023-03-14T07:40:41.005Z,8.95
2023-03-14T07:43:47.907Z,8.91
2023-03-14T07:46:54.087Z,8.89
2023-03-14T07:50:03.377Z,9.02
2023-03-14T07:53:09.509Z,9.58
2023-03-14T07:56:16.504Z,9.96
2023-03-14T07:59:22.891Z,10.19
2023-03-14T08:02:29.965Z,10.76
2023-03-14T08:05:39.423Z,10.63
2023-03-14T08:08:46.158Z,10.33
2023-03-14T08:11:52.102Z,10.35
2023-03-14T08:15:00.804Z,10.41
2023-03-14T08:18:09.896Z,10.37
2023-03-14T08:21:19.311Z,10.59
2023-03-14T08:24:25.177Z,10.63
2023-03-14T08:27:31.864Z,11.20
2023-03-14T08:30:38.026Z,11.39
2023-03-14T08:33:45.065Z,11.15
2023-03-14T08:36:53.711Z,11.16
2023-03-14T08:40:00.507Z,11.75
2023-03-14T08:43:06.467Z,12.12
2023-03-14T08:46:13.198Z,12.13
2023-03-14T08:49:19.207Z,12.04
2023-03-14T08:52:28.739Z,11.56
2023-03-14T08:55:34.618Z,11.48
2023-03-14T08:58:42.599Z,11.23
2023-03-14T09:01:50.523Z,10.74
2023-03-14T09:04:58.017Z,10.70
2023-03-14T09:08:06.530Z,10.92
2023-03-14T09:11:13.766Z,10.75
2023-03-14T09:14:21.430Z,10.84
2023-03-14T09:17:30.183Z,10.80
2023-03-14T09:20:36.070Z,10.91
2023-03-14T09:23:47.021Z,10.88
2023-03-14T09:26:52.861Z,10.65
2023-03-14T09:30:01.665Z,10.80
2023-03-14T09:33:07.794Z,11.00
2023-03-14T09:36:15.091Z,11.01
2023-03-14T09:39:26.927Z,11.62
2023-03-14T09:42:33.764Z,12.30
2023-03-14T09:45:44.130Z,12.03
2023-03-14T09:48:51.442Z,11.56
2023-03-14T09:52:04.108Z,11.58
2023-03-14T09:55:20.042Z,12.27
2023-03-14T09:58:29.209Z,12.00
2023-03-14T10:01:37.769Z,11.99
2023-03-14T10:04:48.011Z,12.37
2023-03-14T10:07:55.550Z,12.16
2023-03-14T10:11:04.210Z,11.77
2023-03-14T10:14:14.672Z,11.49
2023-03-14T10:17:24.502Z,11.24
2023-03-14T10:20:37.202Z,11.18
2023-03-14T10:23:43.632Z,11.07
2023-03-14T10:26:59.361Z,10.97
2023-03-14T10:30:18.632Z,10.89
2023-03-14T10:33:30.609Z,10.71
2023-03-14T10:36:39.212Z,10.83
2023-03-14T10:39:52.944Z,10.98
2023-03-14T10:43:07.120Z,10.67
2023-03-14T10:46:21.096Z,10.72
2023-03-14T10:49:45.772Z,10.65
2023-03-14T10:53:02.829Z,10.50
2023-03-14T10:56:10.604Z,10.42
2023-03-14T10:59:20.739Z,10.32
2023-03-14T11:02:51.538Z,10.16
2023-03-14T11:06:08.343Z,10.08
2023-03-14T11:09:29.200Z,10.12
2023-03-14T11:12:57.692Z,9.81
2023-03-14T11:16:31.121Z,9.58
2023-03-14T11:20:02.745Z,9.28
2023-03-14T11:23:20.744Z,9.24
2023-03-14T11:26:41.449Z,9.13
2023-03-14T11:30:16.011Z,9.10
2023-03-14T11:33:36.940Z,9.03
2023-03-14T11:36:57.333Z,9.05
2023-03-14T11:40:22.279Z,9.15
2023-03-14T11:43:36.104Z,9.19
2023-03-14T11:46:52.476Z,9.12
2023-03-14T11:50:09.055Z,9.05
2023-03-14T11:53:26.298Z,9.32
2023-03-14T11:56:44.823Z,9.36
2023-03-14T12:00:02.193Z,9.39
2023-03-14T12:03:34.040Z,9.14
2023-03-14T12:06:56.483Z,9.06
2023-03-14T12:10:02.674Z,9.03
2023-03-14T12:13:14.021Z,9.09
2023-03-14T12:16:41.462Z,9.05
2023-03-14T12:19:50.165Z,9.17
2023-03-14T12:23:07.841Z,9.22
2023-03-14T12:26:26.375Z,9.23
2023-03-14T12:29:34.184Z,9.34
2023-03-14T12:32:44.516Z,9.17
2023-03-14T12:36:19.544Z,9.30
2023-03-14T12:39:52.108Z,8.98
2023-03-14T12:43:04.503Z,8.84
2023-03-14T12:46:26.111Z,9.07
2023-03-14T12:49:36.192Z,8.99
2023-03-14T12:53:16.704Z,8.92
2023-03-14T12:56:39.668Z,8.92
2023-03-14T12:59:55.674Z,8.92
2023-03-14T13:03:23.530Z,8.81
2023-03-14T13:06:58.351Z,8.80
2023-03-14T13:10:23.129Z,8.70
2023-03-14T13:13:50.401Z,8.68
2023-03-14T13:16:56.825Z,8.78
2023-03-14T13:20:16.899Z,8.61
2023-03-14T13:23:29.288Z,8.58
2023-03-14T13:26:43.880Z,8.46
2023-03-14T13:29:55.395Z,8.59
2023-03-14T13:33:07.166Z,8.51
2023-03-14T13:36:14.218Z,8.57
2023-03-14T13:39:26.922Z,8.39
2023-03-14T13:42:34.414Z,8.52
2023-03-14T13:46:17.552Z,8.59
2023-03-14T13:49:31.655Z,8.47
2023-03-14T13:52:42.190Z,8.31
2023-03-14T13:55:48.219Z,8.23
2023-03-14T13:58:56.007Z,8.06
2023-03-14T14:02:18.834Z,8.07
2023-03-14T14:05:29.783Z,8.14
2023-03-14T14:08:37.907Z,7.99
2023-03-14T14:12:11.465Z,8.00
2023-03-14T14:15:29.927Z,7.87
2023-03-14T14:18:41.378Z,7.85
2023-03-14T14:21:48.167Z,7.76
2023-03-14T14:24:55.841Z,7.62
2023-03-14T14:28:01.960Z,7.45
2023-03-14T14:31:26.505Z,7.48
2023-03-14T14:34:50.760Z,7.41
2023-03-14T14:37:58.220Z,7.48
2023-03-14T14:41:07.309Z,7.36
2023-03-14T14:44:22.389Z,7.40
2023-03-14T14:47:32.781Z,7.29
2023-03-14T14:50:55.013Z,7.38
2023-03-14T14:54:16.642Z,7.50
2023-03-14T14:57:30.120Z,7.69
2023-03-14T15:00:37.273Z,7.95
2023-03-14T15:03:48.788Z,7.81
2023-03-14T15:06:57.740Z,7.83
2023-03-14T15:10:05.382Z,7.89
2023-03-14T15:13:14.524Z,7.67
2023-03-14T15:16:26.981Z,7.54
2023-03-14T15:19:34.460Z,7.47
2023-03-14T15:22:45.163Z,7.44
2023-03-14T15:25:55.950Z,7.62
2023-03-14T15:29:03.064Z,7.70
2023-03-14T15:32:10.254Z,7.87
2023-03-14T15:35:19.339Z,7.76
2023-03-14T15:38:28.057Z,7.70
2023-03-14T15:41:35.289Z,7.60
2023-03-14T15:44:41.752Z,7.38
2023-03-14T15:47:48.538Z,7.32
2023-03-14T15:50:54.524Z,7.41
2023-03-14T15:54:04.047Z,7.36
2023-03-14T15:57:09.988Z,7.25
2023-03-14T16:00:22.825Z,7.25
2023-03-14T16:03:29.140Z,7.26
2023-03-14T16:06:36.615Z,7.23
2023-03-14T16:09:46.225Z,7.15
2023-03-14T16:12:56.365Z,7.14
2023-03-14T16:16:13.521Z,7.17
2023-03-14T16:19:20.683Z,7.22
2023-03-14T16:22:27.315Z,7.19
2023-03-14T16:25:36.815Z,7.30
2023-03-14T16:28:43.196Z,7.32
2023-03-14T16:31:52.481Z,7.32
2023-03-14T16:35:05.446Z,7.40
2023-03-14T16:38:16.517Z,7.42
2023-03-14T16:41:25.669Z,7.32
2023-03-14T16:44:33.188Z,7.37
2023-03-14T16:47:39.685Z,7.43
2023-03-14T16:50:49.455Z,7.41
2023-03-14T16:53:55.437Z,7.32
2023-03-14T16:57:04.841Z,7.39
2023-03-14T17:00:15.673Z,7.43
2023-03-14T17:03:22.789Z,7.49
2023-03-14T17:06:31.644Z,7.39
2023-03-14T17:09:39.414Z,7.35
2023-03-14T17:12:48.861Z,7.10
2023-03-14T17:15:58.505Z,7.06
2023-03-14T17:19:07.914Z,7.03
2023-03-14T17:22:31.688Z,6.93
2023-03-14T17:25:40.729Z,6.80
2023-03-14T17:28:50.456Z,6.81
2023-03-14T17:31:56.497Z,6.79
2023-03-14T17:35:24.248Z,6.73
2023-03-14T17:38:33.840Z,6.68
2023-03-14T17:41:40.711Z,6.65
2023-03-14T17:44:53.822Z,6.54
2023-03-14T17:48:01.472Z,6.49
2023-03-14T17:51:09.516Z,6.48
2023-03-14T17:54:16.505Z,6.62
2023-03-14T17:57:25.955Z,6.68
2023-03-14T18:00:41.234Z,6.73
2023-03-14T18:03:48.382Z,6.45
2023-03-14T18:06:56.327Z,6.33
2023-03-14T18:10:02.774Z,6.28
2023-03-14T18:13:09.726Z,6.27
2023-03-14T18:16:28.453Z,6.26
2023-03-14T18:19:40.727Z,6.34
2023-03-14T18:22:48.979Z,6.28
2023-03-14T18:26:10.425Z,6.35
2023-03-14T18:29:19.808Z,6.50
2023-03-14T18:32:28.600Z,6.59
2023-03-14T18:35:36.428Z,6.52
2023-03-14T18:38:46.781Z,6.50
2023-03-14T18:41:53.779Z,6.51
2023-03-14T18:45:00.671Z,6.50
2023-03-14T18:48:13.244Z,6.56
2023-03-14T18:51:19.859Z,6.60
2023-03-14T18:54:30.257Z,6.59
2023-03-14T18:57:40.189Z,6.78
2023-03-14T19:00:47.052Z,6.96
2023-03-14T19:04:10.477Z,7.05
2023-03-14T19:07:23.945Z,7.17
2023-03-14T19:10:36.616Z,7.05
2023-03-14T19:13:44.835Z,7.03
2023-03-14T19:17:00.081Z,6.94
2023-03-14T19:20:15.256Z,6.85
2023-03-14T19:23:27.794Z,6.85
2023-03-14T19:26:36.223Z,6.87
2023-03-14T19:29:43.352Z,6.73
2023-03-14T19:32:53.558Z,6.67
2023-03-14T19:36:11.392Z,6.64
2023-03-14T19:39:42.678Z,6.61
2023-03-14T19:42:52.812Z,6.45
2023-03-14T19:46:00.075Z,6.32
2023-03-14T19:49:14.121Z,6.34
2023-03-14T19:52:37.325Z,6.28
2023-03-14T19:55:53.270Z,6.29
2023-03-14T19:59:03.394Z,6.26
2023-03-14T20:02:10.602Z,6.24
2023-03-14T20:05:19.310Z,6.12
2023-03-14T20:08:34.295Z,6.13
2023-03-14T20:11:44.549Z,6.18
2023-03-14T20:14:50.741Z,6.31
2023-03-14T20:17:57.867Z,6.25
2023-03-14T20:21:08.208Z,6.21
2023-03-14T20:24:17.860Z,6.31
2023-03-14T20:27:24.082Z,6.27
2023-03-14T20:30:33.788Z,6.27
2023-03-14T20:33:40.177Z,6.21
2023-03-14T20:36:47.037Z,6.18
2023-03-14T20:39:55.622Z,6.28
2023-03-14T20:43:05.003Z,6.20
2023-03-14T20:46:11.213Z,6.15
2023-03-14T20:49:18.191Z,6.22
2023-03-14T20:52:32.934Z,6.17
2023-03-14T20:55:43.054Z,6.00
2023-03-14T20:58:49.106Z,6.02
2023-03-14T21:05:17.766Z,6.04
2023-03-14T21:08:29.759Z,6.01
2023-03-14T21:11:43.464Z,5.99
2023-03-14T21:14:50.811Z,6.04
2023-03-14T21:18:05.590Z,5.95
2023-03-14T21:21:12.528Z,5.98
2023-03-14T21:24:19.818Z,6.01
2023-03-14T21:27:29.346Z,6.00
2023-03-14T21:30:41.435Z,5.90
2023-03-14T21:33:49.154Z,5.90
2023-03-14T21:36:55.679Z,5.90
2023-03-14T21:40:02.349Z,5.97
2023-03-14T21:43:23.682Z,5.95
2023-03-14T21:46:31.008Z,5.94
2023-03-14T21:49:38.402Z,5.92
2023-03-14T21:52:47.082Z,5.93
2023-03-14T21:55:55.924Z,5.93
2023-03-14T21:59:05.244Z,6.02
2023-03-14T22:02:17.657Z,6.07
2023-03-14T22:05:25.466Z,5.94
2023-03-14T22:08:32.009Z,6.03
2023-03-14T22:11:38.794Z,6.03
2023-03-14T22:14:48.128Z,6.11
2023-03-14T22:17:54.923Z,6.16
2023-03-14T22:21:04.942Z,6.23
2023-03-14T22:24:12.085Z,6.20
2023-03-14T22:27:18.353Z,6.17
2023-03-14T22:30:32.397Z,6.29
2023-03-14T22:33:38.700Z,6.41
2023-03-14T22:36:46.504Z,6.46
2023-03-14T22:39:59.330Z,6.40
2023-03-14T22:43:06.043Z,6.32
2023-03-14T22:46:14.586Z,5.83
2023-03-14T22:49:21.797Z,5.36
2023-03-14T22:52:33.869Z,4.93
2023-03-14T22:55:40.664Z,4.30
2023-03-14T22:58:47.043Z,3.93
2023-03-14T23:01:56.521Z,3.70
2023-03-14T23:05:02.651Z,3.42
2023-03-14T23:08:09.992Z,3.04
2023-03-14T23:11:17.502Z,2.79
2023-03-14T23:14:25.282Z,2.84
2023-03-14T23:17:33.947Z,2.73
2023-03-14T23:20:40.896Z,2.64
2023-03-14T23:23:49.842Z,2.48
2023-03-14T23:27:01.013Z,2.17
2023-03-14T23:30:19.970Z,2.12
2023-03-14T23:33:32.275Z,1.78
2023-03-14T23:36:39.675Z,1.78
2023-03-14T23:39:49.209Z,1.56
2023-03-14T23:42:59.352Z,1.45
2023-03-14T23:46:06.577Z,1.06
2023-03-14T23:49:16.153Z,1.23
2023-03-14T23:52:22.953Z,1.08
2023-03-14T23:55:28.963Z,1.01
2023-03-14T23:58:36.939Z,1.18
